Aeroporto :
LOGIN :

Iscrizione | Disclaimer

   EN    FR    IT 

 










Sommario :    VFR   VFR Marginale   IFR   IFR Intensivo   IFR Molto Intensivo
Visibilità : 
Base nubi : 
>= 8 km
>= 3000ft
5 / 8 km
1000 / 3000 ft
1500m / 5 km
500 / 1000 ft
800 / 1500m
200 / 500 ft
< 800m
< 200 ft
Simboli :   Temporali  Nebbia  Neve Forte  Precipitazioni Forti  Vento > 20 kt
SIGMETs :   Varie  Temporali  Ghiacco  Turbolenza  Onda orograficha  Ceneri Vulcaniche







- Altitudine del aeroporto : 287 ft
- Carte del aeroporto


LFRL - Lanveoc Poulmic

ULTIMO METAR :
  • 210500Z AUTO 24005KT 9000 SCT001 BKN015 BKN021 16/16 Q1013 BECMG 2000 -RADZ BKN005 OVC008

METARs OBSOLETI :
  • 210430Z AUTO 24006KT 4800 1000 R23/1600D R05/1400D BR BKN002 BKN019 OVC028 16/16 Q1013 BECMG 2000 -RADZ BKN005 OVC008
  • 210400Z AUTO 24005KT 9999 SCT003 BKN014 BKN019 16/16 Q1013 TEMPO BKN003 BECMG 2000 -RADZ
  • 210330Z AUTO 25005KT 9999 -DZ BKN003 BKN009 BKN025 16/16 Q1014 BECMG 2000 -RADZ
  • 210300Z AUTO 26007KT 7000 -RA BKN002 BKN014 OVC031 16/16 Q1014 BECMG 2000 -RADZ
  • 210230Z AUTO 26007KT 9999 BKN002 BKN033 OVC039 17/16 Q1014 BECMG 2000 -RADZ

TAF TAF LFRL
Valido dal 20 a 12 ore il 21 a 12 ore UTC


201100Z 2012/2112 31009KT 9999 SCT030 OVC045
BECMG 2013/2015 27010G20KT
BECMG 2018/2022 4000 -RADZ BKN014
BECMG 2100/2102 2000 -RADZ BKN005 OVC008
PROB30
TEMPO 2103/2106 BKN003
BECMG 2107/2109 BKN010
TEMPO 2109/2112 SHRA BKN010TCU
Nessun NOTAM noto per questo aeroporto.



MetMap, La meteo Aeronautica in un colpo d'occhio ! - Copyright ORBIFLY Dicembre 2007 - Disclaimer

ORBIFLY MET'MAP TEAM :

Programmazione e sviluppo : Alexandra Zaïnal
Concezione e sviluppo : Baudouin d'Aumeries
Co-Programmazione e sviluppo : Marc-Olivier Méhu
Supporto tecnico e logistico : Manuel Goepfert
Aiuto per la traduzione : Arnaldo La Scala

Contatto : metmap@orbifly.com




FONTI E CREDITI :

   NOAA